createdAt,value
2019-03-29T00:07:00.962Z,127.53
2019-03-29T00:17:05.957Z,132.80
2019-03-29T00:27:10.936Z,80.73
2019-03-29T00:37:15.926Z,87.27
2019-03-29T00:47:20.934Z,76.47
2019-03-29T00:57:26.025Z,80.43
2019-03-29T01:07:31.165Z,79.97
2019-03-29T01:17:36.725Z,79.33
2019-03-29T01:27:41.713Z,91.40
2019-03-29T01:37:46.704Z,117.47
2019-03-29T01:47:52.626Z,102.17
2019-03-29T01:57:58.947Z,89.93
2019-03-29T02:08:04.885Z,106.37
2019-03-29T02:18:10.070Z,102.17
2019-03-29T02:28:15.055Z,78.67
2019-03-29T02:38:20.057Z,78.33
2019-03-29T02:48:25.052Z,73.90
2019-03-29T02:58:30.018Z,73.83
2019-03-29T03:08:35.027Z,77.70
2019-03-29T03:18:40.030Z,78.03
2019-03-29T03:28:45.058Z,84.83
2019-03-29T03:38:50.484Z,85.70
2019-03-29T03:48:55.527Z,99.23
2019-03-29T03:59:01.009Z,85.60
2019-03-29T04:09:06.833Z,87.60
2019-03-29T04:19:11.929Z,80.97
2019-03-29T04:29:16.937Z,74.43
2019-03-29T04:39:22.018Z,90.85
2019-03-29T04:49:26.999Z,72.83
2019-03-29T04:59:32.006Z,70.63
2019-03-29T05:09:36.997Z,76.67
2019-03-29T05:19:44.560Z,72.80
2019-03-29T05:29:48.616Z,83.00
2019-03-29T05:39:53.737Z,90.47
2019-03-29T05:49:58.716Z,79.43
2019-03-29T06:00:05.222Z,87.63
2019-03-29T06:10:10.342Z,87.27
2019-03-29T06:20:16.084Z,92.12
2019-03-29T06:30:29.131Z,87.27
2019-03-29T06:40:35.262Z,87.93
2019-03-29T06:50:40.348Z,96.27
2019-03-29T07:00:46.876Z,84.67
2019-03-29T07:10:51.874Z,91.47
2019-03-29T07:20:56.877Z,78.53
2019-03-29T07:31:02.157Z,128.43
2019-03-29T07:41:08.226Z,79.67
2019-03-29T07:51:14.193Z,83.00
2019-03-29T08:01:20.748Z,101.30
2019-03-29T08:11:26.736Z,77.40
2019-03-29T08:21:32.652Z,68.07
2019-03-29T08:31:37.668Z,68.23
2019-03-29T08:41:42.872Z,51.60
2019-03-29T08:51:48.052Z,41.43
2019-03-29T09:01:53.456Z,44.83
2019-03-29T09:11:58.458Z,32.35
2019-03-29T09:22:03.661Z,23.05
2019-03-29T09:32:08.646Z,28.87
2019-03-29T09:42:27.752Z,25.15
2019-03-29T09:52:20.473Z,19.37
2019-03-29T10:02:25.671Z,17.23
2019-03-29T10:12:42.735Z,17.70
2019-03-29T10:22:37.481Z,19.02
2019-03-29T10:32:42.491Z,13.72
2019-03-29T10:42:57.509Z,18.70
2019-03-29T10:52:54.657Z,24.37
2019-03-29T11:02:59.716Z,17.93
2019-03-29T11:13:13.000Z,15.60
2019-03-29T11:23:14.117Z,15.47
2019-03-29T11:33:19.112Z,13.83
2019-03-29T11:43:27.084Z,16.82
2019-03-29T11:53:31.137Z,21.68
2019-03-29T12:03:36.137Z,18.05
2019-03-29T12:13:41.690Z,18.17
2019-03-29T12:23:46.742Z,17.62
2019-03-29T12:33:51.737Z,20.62
2019-03-29T12:43:56.865Z,24.30
2019-03-29T12:54:01.815Z,53.87
2019-03-29T13:04:09.585Z,28.93
2019-03-29T13:14:13.550Z,19.70
2019-03-29T13:24:18.664Z,22.32
2019-03-29T13:34:23.726Z,30.10
2019-03-29T13:44:28.831Z,23.20
2019-03-29T13:54:33.917Z,31.97
2019-03-29T14:04:39.017Z,22.63
2019-03-29T14:14:44.106Z,17.87
2019-03-29T14:24:49.057Z,20.93
2019-03-29T14:34:54.217Z,21.67
2019-03-29T14:44:59.391Z,16.27
2019-03-29T14:55:06.486Z,20.17
2019-03-29T15:05:11.434Z,20.45
2019-03-29T15:15:16.530Z,22.27
2019-03-29T15:25:21.519Z,22.63
2019-03-29T15:35:26.511Z,21.63
2019-03-29T15:45:31.517Z,23.10
2019-03-29T15:55:36.489Z,27.00
2019-03-29T16:05:41.498Z,29.70
2019-03-29T16:15:46.484Z,27.63
2019-03-29T16:25:51.478Z,39.17
2019-03-29T16:36:10.349Z,40.53
2019-03-29T16:46:18.071Z,34.60
2019-03-29T16:56:23.148Z,32.50
2019-03-29T17:06:29.089Z,34.17
2019-03-29T17:16:35.096Z,39.33
2019-03-29T17:26:40.402Z,37.80
2019-03-29T17:36:45.533Z,34.10
2019-03-29T17:46:50.707Z,33.57
2019-03-29T17:56:55.832Z,33.37
2019-03-29T18:07:00.912Z,30.00
2019-03-29T18:17:06.169Z,26.90
2019-03-29T18:27:11.575Z,26.77
2019-03-29T18:37:17.850Z,28.80
2019-03-29T18:47:23.038Z,41.17
2019-03-29T18:57:28.287Z,24.20
2019-03-29T19:07:34.537Z,44.53
2019-03-29T19:17:39.879Z,51.43
2019-03-29T19:27:45.208Z,45.85
2019-03-29T19:37:50.539Z,49.90
2019-03-29T19:47:55.922Z,50.07
2019-03-29T19:58:01.235Z,65.17
2019-03-29T20:08:06.392Z,61.17
2019-03-29T20:18:11.565Z,114.75
2019-03-29T20:28:16.805Z,104.90
2019-03-29T20:38:22.083Z,111.93
2019-03-29T20:48:27.378Z,75.37
2019-03-29T20:58:32.635Z,111.57
2019-03-29T21:08:37.759Z,92.63
2019-03-29T21:18:42.947Z,79.73
2019-03-29T21:28:48.052Z,165.40
2019-03-29T21:38:53.212Z,128.27
2019-03-29T21:48:59.225Z,138.00
2019-03-29T21:59:05.243Z,116.77
2019-03-29T22:09:10.306Z,100.18
2019-03-29T22:19:15.230Z,111.60
2019-03-29T22:29:21.849Z,93.93
2019-03-29T22:39:27.933Z,72.33
2019-03-29T22:49:32.880Z,85.60
2019-03-29T22:59:37.884Z,87.70
2019-03-29T23:09:42.876Z,70.20
2019-03-29T23:19:47.860Z,56.33
2019-03-29T23:29:52.750Z,50.57
2019-03-29T23:39:57.749Z,55.40
2019-03-29T23:50:02.838Z,48.30
